Terminal Aerodrome Forecast
Issued by NWS Brownsville, TX

Home | Current Version | Previous Version | Text Only | Print | Product List | Glossary On
Versions: 1 2 3 4 5 6 7 8 9 10 11 12 13
010
FTUS44 KBRO 222325
TAFHRL
TAF
KHRL 222325Z 2300/2324 16018G25KT P6SM FEW250
     FM230300 16009KT P6SM SKC
     FM231500 16016G22KT P6SM FEW030
     FM231800 15020G30KT P6SM SCT050 SCT250=

USA.gov is the U.S. government's official web portal to all federal, state and local government web resources and services.